sensor_id;sensor_type;location;lat;lon;timestamp;pressure;altitude;pressure_sealevel;temperature;humidity
36726;BME280;44936;52.086;5.150;2023-06-26T00:00:40;101354.72;;;20.54;100.00
36726;BME280;44936;52.086;5.150;2023-06-26T00:03:05;101362.47;;;20.62;100.00
36726;BME280;44936;52.086;5.150;2023-06-26T00:05:30;101337.06;;;20.50;100.00
36726;BME280;44936;52.086;5.150;2023-06-26T00:07:56;101337.84;;;20.54;100.00
36726;BME280;44936;52.086;5.150;2023-06-26T00:10:26;101348.59;;;20.51;100.00
36726;BME280;44936;52.086;5.150;2023-06-26T00:12:51;101377.06;;;20.49;100.00
36726;BME280;44936;52.086;5.150;2023-06-26T00:15:17;101337.94;;;20.20;100.00
36726;BME280;44936;52.086;5.150;2023-06-26T00:17:42;101412.38;;;20.57;100.00
36726;BME280;44936;52.086;5.150;2023-06-26T00:20:10;101419.53;;;20.55;100.00
36726;BME280;44936;52.086;5.150;2023-06-26T00:22:36;101412.25;;;20.61;100.00
36726;BME280;44936;52.086;5.150;2023-06-26T00:25:06;101374.50;;;20.46;100.00
36726;BME280;44936;52.086;5.150;2023-06-26T00:27:31;101356.00;;;20.40;100.00
36726;BME280;44936;52.086;5.150;2023-06-26T00:29:56;101368.94;;;20.53;100.00
36726;BME280;44936;52.086;5.150;2023-06-26T00:32:25;101386.41;;;20.63;100.00
36726;BME280;44936;52.086;5.150;2023-06-26T00:34:50;101363.53;;;20.56;100.00
36726;BME280;44936;52.086;5.150;2023-06-26T00:37:16;101361.00;;;20.52;100.00
36726;BME280;44936;52.086;5.150;2023-06-26T00:39:41;101376.66;;;20.62;100.00
36726;BME280;44936;52.086;5.150;2023-06-26T00:42:07;101386.31;;;20.67;100.00
36726;BME280;44936;52.086;5.150;2023-06-26T00:44:32;101354.88;;;20.48;100.00
36726;BME280;44936;52.086;5.150;2023-06-26T00:46:58;101361.94;;;20.51;100.00
36726;BME280;44936;52.086;5.150;2023-06-26T00:49:24;101432.81;;;20.56;100.00
36726;BME280;44936;52.086;5.150;2023-06-26T00:51:49;101512.09;;;20.50;100.00
36726;BME280;44936;52.086;5.150;2023-06-26T00:54:15;101593.63;;;20.55;100.00
36726;BME280;44936;52.086;5.150;2023-06-26T00:56:46;101675.06;;;20.69;100.00
36726;BME280;44936;52.086;5.150;2023-06-26T00:59:12;101712.31;;;20.70;100.00
36726;BME280;44936;52.086;5.150;2023-06-26T01:01:37;101730.06;;;20.71;100.00
36726;BME280;44936;52.086;5.150;2023-06-26T01:04:03;101746.06;;;20.71;100.00
36726;BME280;44936;52.086;5.150;2023-06-26T01:06:30;101728.88;;;20.47;100.00
36726;BME280;44936;52.086;5.150;2023-06-26T01:08:58;101768.34;;;20.69;100.00
36726;BME280;44936;52.086;5.150;2023-06-26T01:11:24;101789.69;;;20.69;100.00
36726;BME280;44936;52.086;5.150;2023-06-26T01:13:50;101794.22;;;20.63;100.00
36726;BME280;44936;52.086;5.150;2023-06-26T01:16:17;101807.47;;;20.67;100.00
36726;BME280;44936;52.086;5.150;2023-06-26T01:18:45;101819.09;;;20.64;100.00
36726;BME280;44936;52.086;5.150;2023-06-26T01:21:12;101819.22;;;20.59;100.00
36726;BME280;44936;52.086;5.150;2023-06-26T01:26:21;101823.69;;;20.57;100.00
36726;BME280;44936;52.086;5.150;2023-06-26T01:28:49;101826.34;;;20.57;100.00
36726;BME280;44936;52.086;5.150;2023-06-26T01:31:16;101827.22;;;20.58;100.00
36726;BME280;44936;52.086;5.150;2023-06-26T01:33:43;101836.13;;;20.58;100.00
36726;BME280;44936;52.086;5.150;2023-06-26T01:36:08;101816.75;;;20.50;100.00
36726;BME280;44936;52.086;5.150;2023-06-26T01:38:34;101825.59;;;20.52;100.00
36726;BME280;44936;52.086;5.150;2023-06-26T01:41:00;101814.16;;;20.47;100.00
36726;BME280;44936;52.086;5.150;2023-06-26T01:43:31;101832.66;;;20.53;100.00
36726;BME280;44936;52.086;5.150;2023-06-26T01:46:05;101835.41;;;20.50;100.00
36726;BME280;44936;52.086;5.150;2023-06-26T01:48:35;101832.66;;;20.53;100.00
36726;BME280;44936;52.086;5.150;2023-06-26T01:51:03;101830.09;;;20.49;100.00
36726;BME280;44936;52.086;5.150;2023-06-26T01:53:36;101829.34;;;20.42;100.00
36726;BME280;44936;52.086;5.150;2023-06-26T01:56:06;101839.22;;;20.37;100.00
36726;BME280;44936;52.086;5.150;2023-06-26T01:58:33;101847.22;;;20.37;100.00
36726;BME280;44936;52.086;5.150;2023-06-26T02:00:59;101835.78;;;20.30;100.00
36726;BME280;44936;52.086;5.150;2023-06-26T02:03:25;101834.00;;;20.32;100.00
36726;BME280;44936;52.086;5.150;2023-06-26T02:05:51;101837.59;;;20.30;100.00
36726;BME280;44936;52.086;5.150;2023-06-26T02:08:17;101840.25;;;20.30;100.00
36726;BME280;44936;52.086;5.150;2023-06-26T02:10:42;101835.97;;;20.23;100.00
36726;BME280;44936;52.086;5.150;2023-06-26T02:13:08;101830.75;;;20.18;100.00
36726;BME280;44936;52.086;5.150;2023-06-26T02:15:33;101833.34;;;20.21;100.00
36726;BME280;44936;52.086;5.150;2023-06-26T02:17:59;101840.44;;;20.21;100.00
36726;BME280;44936;52.086;5.150;2023-06-26T02:20:24;101821.88;;;20.18;100.00
36726;BME280;44936;52.086;5.150;2023-06-26T02:22:50;101810.53;;;20.08;100.00
36726;BME280;44936;52.086;5.150;2023-06-26T02:25:15;101835.06;;;20.24;100.00
36726;BME280;44936;52.086;5.150;2023-06-26T02:27:41;101828.69;;;19.89;100.00
36726;BME280;44936;52.086;5.150;2023-06-26T02:30:08;101815.91;;;20.06;100.00
36726;BME280;44936;52.086;5.150;2023-06-26T02:32:34;101820.13;;;20.17;100.00
36726;BME280;44936;52.086;5.150;2023-06-26T02:34:59;101829.75;;;20.22;100.00
36726;BME280;44936;52.086;5.150;2023-06-26T02:37:24;101837.75;;;20.24;100.00
36726;BME280;44936;52.086;5.150;2023-06-26T02:39:50;101840.41;;;20.24;100.00
36726;BME280;44936;52.086;5.150;2023-06-26T02:42:15;101842.28;;;20.19;100.00
36726;BME280;44936;52.086;5.150;2023-06-26T02:44:40;101828.91;;;20.20;100.00
36726;BME280;44936;52.086;5.150;2023-06-26T02:47:06;101826.22;;;20.22;100.00
36726;BME280;44936;52.086;5.150;2023-06-26T02:49:31;101848.41;;;20.22;100.00
36726;BME280;44936;52.086;5.150;2023-06-26T02:51:57;101835.31;;;20.12;100.00
36726;BME280;44936;52.086;5.150;2023-06-26T02:54:25;101846.81;;;20.14;100.00
36726;BME280;44936;52.086;5.150;2023-06-26T02:56:50;101844.03;;;20.20;100.00
36726;BME280;44936;52.086;5.150;2023-06-26T02:59:16;101858.13;;;20.25;100.00
36726;BME280;44936;52.086;5.150;2023-06-26T03:01:41;101838.81;;;20.15;100.00
36726;BME280;44936;52.086;5.150;2023-06-26T03:04:06;101842.34;;;20.16;100.00
36726;BME280;44936;52.086;5.150;2023-06-26T03:06:32;101819.38;;;19.65;100.00
36726;BME280;44936;52.086;5.150;2023-06-26T03:08:57;101789.34;;;19.59;100.00
36726;BME280;44936;52.086;5.150;2023-06-26T03:11:22;101789.97;;;19.73;100.00
36726;BME280;44936;52.086;5.150;2023-06-26T03:13:48;101800.38;;;19.84;100.00
36726;BME280;44936;52.086;5.150;2023-06-26T03:16:13;101807.25;;;19.95;100.00
36726;BME280;44936;52.086;5.150;2023-06-26T03:18:38;101808.03;;;20.00;100.00
36726;BME280;44936;52.086;5.150;2023-06-26T03:21:04;101828.44;;;20.01;100.00
36726;BME280;44936;52.086;5.150;2023-06-26T03:23:30;101825.94;;;19.92;100.00
36726;BME280;44936;52.086;5.150;2023-06-26T03:25:55;101809.38;;;19.78;100.00
36726;BME280;44936;52.086;5.150;2023-06-26T03:28:20;101826.88;;;19.91;100.00
36726;BME280;44936;52.086;5.150;2023-06-26T03:30:46;101841.06;;;19.92;100.00
36726;BME280;44936;52.086;5.150;2023-06-26T03:33:11;101841.13;;;19.87;100.00
36726;BME280;44936;52.086;5.150;2023-06-26T03:35:37;101837.81;;;19.76;100.00
36726;BME280;44936;52.086;5.150;2023-06-26T03:38:04;101842.22;;;19.77;100.00
36726;BME280;44936;52.086;5.150;2023-06-26T03:40:30;101863.31;;;19.89;100.00
36726;BME280;44936;52.086;5.150;2023-06-26T03:42:55;101862.44;;;19.89;100.00
36726;BME280;44936;52.086;5.150;2023-06-26T03:45:20;101863.31;;;19.89;100.00
36726;BME280;44936;52.086;5.150;2023-06-26T03:47:46;101858.03;;;19.85;100.00
36726;BME280;44936;52.086;5.150;2023-06-26T03:50:18;101884.59;;;19.88;100.00
36726;BME280;44936;52.086;5.150;2023-06-26T03:52:44;101897.06;;;19.86;100.00
36726;BME280;44936;52.086;5.150;2023-06-26T03:55:10;101901.59;;;19.82;100.00
36726;BME280;44936;52.086;5.150;2023-06-26T03:57:35;101912.31;;;19.79;100.00
36726;BME280;44936;52.086;5.150;2023-06-26T04:00:00;101917.72;;;19.73;100.00
36726;BME280;44936;52.086;5.150;2023-06-26T04:02:26;101915.22;;;19.64;100.00
36726;BME280;44936;52.086;5.150;2023-06-26T04:04:51;101924.91;;;19.68;100.00
36726;BME280;44936;52.086;5.150;2023-06-26T04:07:17;101933.88;;;19.64;100.00
36726;BME280;44936;52.086;5.150;2023-06-26T04:09:42;101925.09;;;19.56;100.00
36726;BME280;44936;52.086;5.150;2023-06-26T04:12:08;101940.19;;;19.57;100.00
36726;BME280;44936;52.086;5.150;2023-06-26T04:14:33;101922.66;;;19.42;100.00
36726;BME280;44936;52.086;5.150;2023-06-26T04:16:59;101928.91;;;19.39;100.00
36726;BME280;44936;52.086;5.150;2023-06-26T04:19:27;101923.66;;;19.36;100.00
36726;BME280;44936;52.086;5.150;2023-06-26T04:21:52;101900.88;;;19.18;100.00
36726;BME280;44936;52.086;5.150;2023-06-26T04:24:18;101944.69;;;19.50;100.00
36726;BME280;44936;52.086;5.150;2023-06-26T04:26:43;101951.78;;;19.49;100.00
36726;BME280;44936;52.086;5.150;2023-06-26T04:29:10;101955.38;;;19.48;100.00
36726;BME280;44936;52.086;5.150;2023-06-26T04:31:36;101959.75;;;19.52;100.00
36726;BME280;44936;52.086;5.150;2023-06-26T04:34:01;101948.31;;;19.46;100.00
36726;BME280;44936;52.086;5.150;2023-06-26T04:36:27;101955.34;;;19.50;100.00
36726;BME280;44936;52.086;5.150;2023-06-26T04:38:54;101951.78;;;19.49;100.00
36726;BME280;44936;52.086;5.150;2023-06-26T04:41:19;101969.50;;;19.52;100.00
36726;BME280;44936;52.086;5.150;2023-06-26T04:43:45;101973.06;;;19.52;100.00
36726;BME280;44936;52.086;5.150;2023-06-26T04:46:10;101975.66;;;19.56;100.00
36726;BME280;44936;52.086;5.150;2023-06-26T04:48:35;101989.84;;;19.58;100.00
36726;BME280;44936;52.086;5.150;2023-06-26T04:51:01;101995.97;;;19.63;100.00
36726;BME280;44936;52.086;5.150;2023-06-26T04:53:26;101986.34;;;19.54;100.00
36726;BME280;44936;52.086;5.150;2023-06-26T04:55:52;101985.63;;;19.41;100.00
36726;BME280;44936;52.086;5.150;2023-06-26T04:58:18;102006.00;;;19.42;100.00
36726;BME280;44936;52.086;5.150;2023-06-26T05:00:44;102006.00;;;19.44;100.00
36726;BME280;44936;52.086;5.150;2023-06-26T05:03:13;102005.16;;;19.40;100.00
36726;BME280;44936;52.086;5.150;2023-06-26T05:05:39;102002.56;;;19.37;100.00
36726;BME280;44936;52.086;5.150;2023-06-26T05:08:18;102000.81;;;19.33;100.00
36726;BME280;44936;52.086;5.150;2023-06-26T05:10:44;102007.00;;;19.37;100.00
36726;BME280;44936;52.086;5.150;2023-06-26T05:13:10;102010.53;;;19.37;100.00
36726;BME280;44936;52.086;5.150;2023-06-26T05:15:36;102007.91;;;19.34;100.00
36726;BME280;44936;52.086;5.150;2023-06-26T05:18:01;102013.09;;;19.45;100.00
36726;BME280;44936;52.086;5.150;2023-06-26T05:20:27;102003.34;;;19.42;100.00
36726;BME280;44936;52.086;5.150;2023-06-26T05:22:52;102011.19;;;19.53;100.00
36726;BME280;44936;52.086;5.150;2023-06-26T05:25:18;102022.72;;;19.52;100.00
36726;BME280;44936;52.086;5.150;2023-06-26T05:27:47;102018.25;;;19.57;100.00
36726;BME280;44936;52.086;5.150;2023-06-26T05:30:14;102021.81;;;19.55;100.00
36726;BME280;44936;52.086;5.150;2023-06-26T05:32:40;102025.34;;;19.55;100.00
36726;BME280;44936;52.086;5.150;2023-06-26T05:35:06;102030.75;;;19.49;100.00
36726;BME280;44936;52.086;5.150;2023-06-26T05:37:33;102030.88;;;19.40;100.00
36726;BME280;44936;52.086;5.150;2023-06-26T05:39:59;102043.19;;;19.48;100.00
36726;BME280;44936;52.086;5.150;2023-06-26T05:42:26;102049.34;;;19.50;100.00
36726;BME280;44936;52.086;5.150;2023-06-26T05:44:53;102045.00;;;19.45;100.00
36726;BME280;44936;52.086;5.150;2023-06-26T05:47:18;102053.03;;;19.40;100.00
36726;BME280;44936;52.086;5.150;2023-06-26T05:49:43;102057.50;;;19.40;100.00
36726;BME280;44936;52.086;5.150;2023-06-26T05:52:09;102064.56;;;19.41;100.00
36726;BME280;44936;52.086;5.150;2023-06-26T05:54:35;102061.09;;;19.37;100.00
36726;BME280;44936;52.086;5.150;2023-06-26T05:57:01;102063.81;;;19.31;100.00
36726;BME280;44936;52.086;5.150;2023-06-26T05:59:31;102075.13;;;19.47;100.00
36726;BME280;44936;52.086;5.150;2023-06-26T06:01:56;102079.56;;;19.46;100.00
36726;BME280;44936;52.086;5.150;2023-06-26T06:04:22;102037.28;;;19.25;100.00
36726;BME280;44936;52.086;5.150;2023-06-26T06:06:50;102090.19;;;19.48;100.00
36726;BME280;44936;52.086;5.150;2023-06-26T06:09:15;102081.31;;;19.49;100.00
36726;BME280;44936;52.086;5.150;2023-06-26T06:11:41;102080.50;;;19.44;100.00
36726;BME280;44936;52.086;5.150;2023-06-26T06:14:06;102104.31;;;19.51;100.00
36726;BME280;44936;52.086;5.150;2023-06-26T06:16:32;102088.25;;;19.61;100.00
36726;BME280;44936;52.086;5.150;2023-06-26T06:18:57;102098.63;;;19.80;100.00
36726;BME280;44936;52.086;5.150;2023-06-26T06:21:23;102071.22;;;19.74;100.00
36726;BME280;44936;52.086;5.150;2023-06-26T06:23:48;102064.97;;;19.76;100.00
36726;BME280;44936;52.086;5.150;2023-06-26T06:26:13;102052.75;;;19.63;100.00
36726;BME280;44936;52.086;5.150;2023-06-26T06:28:39;102080.81;;;19.84;100.00
36726;BME280;44936;52.086;5.150;2023-06-26T06:31:04;102127.50;;;20.08;100.00
36726;BME280;44936;52.086;5.150;2023-06-26T06:33:30;102127.47;;;20.09;100.00
36726;BME280;44936;52.086;5.150;2023-06-26T06:35:55;102132.63;;;20.19;100.00
36726;BME280;44936;52.086;5.150;2023-06-26T06:38:20;102130.94;;;20.13;100.00
36726;BME280;44936;52.086;5.150;2023-06-26T06:40:46;102122.03;;;20.16;100.00
36726;BME280;44936;52.086;5.150;2023-06-26T06:43:11;102143.47;;;20.08;100.00
36726;BME280;44936;52.086;5.150;2023-06-26T06:45:36;102151.50;;;20.06;100.00
36726;BME280;44936;52.086;5.150;2023-06-26T06:48:03;102165.81;;;19.98;100.00
36726;BME280;44936;52.086;5.150;2023-06-26T06:50:29;102148.16;;;19.92;100.00
36726;BME280;44936;52.086;5.150;2023-06-26T06:52:54;102156.09;;;19.94;100.00
36726;BME280;44936;52.086;5.150;2023-06-26T06:55:19;102148.81;;;20.08;100.00
36726;BME280;44936;52.086;5.150;2023-06-26T06:57:45;102162.94;;;20.12;100.00
36726;BME280;44936;52.086;5.150;2023-06-26T07:00:12;102171.81;;;20.12;100.00
36726;BME280;44936;52.086;5.150;2023-06-26T07:02:42;102152.25;;;20.13;100.00
36726;BME280;44936;52.086;5.150;2023-06-26T07:05:09;102163.53;;;20.29;100.00
36726;BME280;44936;52.086;5.150;2023-06-26T07:07:35;102164.41;;;20.32;100.00
36726;BME280;44936;52.086;5.150;2023-06-26T07:10:09;102174.06;;;20.38;100.00
36726;BME280;44936;52.086;5.150;2023-06-26T07:12:36;102160.03;;;20.27;100.00
36726;BME280;44936;52.086;5.150;2023-06-26T07:15:03;102178.53;;;20.36;100.00
36726;BME280;44936;52.086;5.150;2023-06-26T07:17:33;102182.16;;;20.32;100.00
36726;BME280;44936;52.086;5.150;2023-06-26T07:19:59;102177.00;;;20.20;100.00
36726;BME280;44936;52.086;5.150;2023-06-26T07:22:25;102184.13;;;20.19;100.00
36726;BME280;44936;52.086;5.150;2023-06-26T07:24:50;102190.44;;;20.15;100.00
36726;BME280;44936;52.086;5.150;2023-06-26T07:27:16;102186.88;;;20.13;100.00
36726;BME280;44936;52.086;5.150;2023-06-26T07:29:43;102190.41;;;20.14;100.00
36726;BME280;44936;52.086;5.150;2023-06-26T07:32:08;102194.91;;;20.12;100.00
36726;BME280;44936;52.086;5.150;2023-06-26T07:34:34;102206.41;;;20.14;100.00
36726;BME280;44936;52.086;5.150;2023-06-26T07:37:00;102205.41;;;20.21;100.00
36726;BME280;44936;52.086;5.150;2023-06-26T07:39:25;102193.84;;;20.22;100.00
36726;BME280;44936;52.086;5.150;2023-06-26T07:41:51;102208.69;;;20.38;100.00
36726;BME280;44936;52.086;5.150;2023-06-26T07:44:16;102207.94;;;20.30;100.00
36726;BME280;44936;52.086;5.150;2023-06-26T07:46:41;102218.22;;;20.56;100.00
36726;BME280;44936;52.086;5.150;2023-06-26T07:49:07;102216.16;;;20.72;100.00
36726;BME280;44936;52.086;5.150;2023-06-26T07:51:32;102209.00;;;20.74;100.00
36726;BME280;44936;52.086;5.150;2023-06-26T07:53:57;102208.75;;;20.89;100.00
36726;BME280;44936;52.086;5.150;2023-06-26T07:56:23;102225.66;;;20.88;100.00
36726;BME280;44936;52.086;5.150;2023-06-26T07:58:48;102208.66;;;20.95;100.00
36726;BME280;44936;52.086;5.150;2023-06-26T08:01:13;102195.91;;;21.09;100.00
36726;BME280;44936;52.086;5.150;2023-06-26T08:03:39;102186.53;;;20.88;100.00
36726;BME280;44936;52.086;5.150;2023-06-26T08:06:05;102192.03;;;20.79;100.00
36726;BME280;44936;52.086;5.150;2023-06-26T08:08:30;102176.28;;;20.65;100.00
36726;BME280;44936;52.086;5.150;2023-06-26T08:10:56;102198.94;;;20.91;100.00
36726;BME280;44936;52.086;5.150;2023-06-26T08:13:21;102203.31;;;20.95;100.00
36726;BME280;44936;52.086;5.150;2023-06-26T08:15:47;102192.84;;;20.83;100.00
36726;BME280;44936;52.086;5.150;2023-06-26T08:18:12;102207.19;;;20.77;100.00
36726;BME280;44936;52.086;5.150;2023-06-26T08:20:38;102203.59;;;20.80;100.00
36726;BME280;44936;52.086;5.150;2023-06-26T08:23:04;102179.69;;;20.74;100.00
36726;BME280;44936;52.086;5.150;2023-06-26T08:25:29;102203.59;;;20.80;100.00
36726;BME280;44936;52.086;5.150;2023-06-26T08:27:54;102211.69;;;20.74;100.00
36726;BME280;44936;52.086;5.150;2023-06-26T08:30:20;102218.03;;;20.68;100.00
36726;BME280;44936;52.086;5.150;2023-06-26T08:32:46;102202.94;;;20.65;100.00
36726;BME280;44936;52.086;5.150;2023-06-26T08:35:11;102221.44;;;20.75;100.00
36726;BME280;44936;52.086;5.150;2023-06-26T08:37:37;102203.97;;;20.58;100.00
36726;BME280;44936;52.086;5.150;2023-06-26T08:40:03;102223.94;;;20.84;100.00
36726;BME280;44936;52.086;5.150;2023-06-26T08:42:29;102203.66;;;20.77;100.00
36726;BME280;44936;52.086;5.150;2023-06-26T08:44:54;102201.56;;;20.94;100.00
36726;BME280;44936;52.086;5.150;2023-06-26T08:47:21;102203.69;;;20.74;100.00
36726;BME280;44936;52.086;5.150;2023-06-26T08:49:56;102216.91;;;20.80;100.00
36726;BME280;44936;52.086;5.150;2023-06-26T08:52:24;102232.66;;;20.95;100.00
36726;BME280;44936;52.086;5.150;2023-06-26T08:54:58;102226.50;;;20.90;100.00
36726;BME280;44936;52.086;5.150;2023-06-26T08:57:25;102221.69;;;21.12;100.00
36726;BME280;44936;52.086;5.150;2023-06-26T08:59:52;102232.31;;;21.13;100.00
36726;BME280;44936;52.086;5.150;2023-06-26T09:02:17;102239.06;;;21.34;100.00
36726;BME280;44936;52.086;5.150;2023-06-26T09:04:43;102244.25;;;21.42;100.00
36726;BME280;44936;52.086;5.150;2023-06-26T09:07:08;102219.41;;;21.38;100.00
36726;BME280;44936;52.086;5.150;2023-06-26T09:09:34;102221.06;;;21.44;100.00
36726;BME280;44936;52.086;5.150;2023-06-26T09:12:02;102213.50;;;21.21;100.00
36726;BME280;44936;52.086;5.150;2023-06-26T09:14:29;102228.59;;;21.22;100.00
36726;BME280;44936;52.086;5.150;2023-06-26T09:16:54;102230.97;;;21.37;100.00
36726;BME280;44936;52.086;5.150;2023-06-26T09:19:20;102241.47;;;21.48;100.00
36726;BME280;44936;52.086;5.150;2023-06-26T09:21:49;102236.97;;;21.50;100.00
36726;BME280;44936;52.086;5.150;2023-06-26T09:24:14;102228.97;;;21.50;100.00
36726;BME280;44936;52.086;5.150;2023-06-26T09:26:41;102230.03;;;21.41;100.00
36726;BME280;44936;52.086;5.150;2023-06-26T09:29:07;102241.94;;;21.68;100.00
36726;BME280;44936;52.086;5.150;2023-06-26T09:31:33;102229.31;;;21.75;100.00
36726;BME280;44936;52.086;5.150;2023-06-26T09:33:59;102236.59;;;21.68;100.00
36726;BME280;44936;52.086;5.150;2023-06-26T09:36:28;102251.16;;;21.52;100.00
36726;BME280;44936;52.086;5.150;2023-06-26T09:38:54;102237.13;;;21.42;100.00
36726;BME280;44936;52.086;5.150;2023-06-26T09:41:20;102242.41;;;21.44;100.00
36726;BME280;44936;52.086;5.150;2023-06-26T09:43:49;102254.50;;;21.62;100.00
36726;BME280;44936;52.086;5.150;2023-06-26T09:46:16;102254.59;;;21.59;100.00
36726;BME280;44936;52.086;5.150;2023-06-26T09:48:43;102252.94;;;21.52;100.00
36726;BME280;44936;52.086;5.150;2023-06-26T09:51:09;102247.78;;;21.42;100.00
36726;BME280;44936;52.086;5.150;2023-06-26T09:53:35;102252.56;;;21.24;100.00
36726;BME280;44936;52.086;5.150;2023-06-26T09:56:06;102261.72;;;21.09;100.00
36726;BME280;44936;52.086;5.150;2023-06-26T09:58:32;102272.22;;;21.18;100.00
36726;BME280;44936;52.086;5.150;2023-06-26T10:00:58;102270.34;;;21.25;100.00
36726;BME280;44936;52.086;5.150;2023-06-26T10:03:24;102274.00;;;21.20;100.00
36726;BME280;44936;52.086;5.150;2023-06-26T10:05:49;102262.34;;;21.25;100.00
36726;BME280;44936;52.086;5.150;2023-06-26T10:08:16;102280.00;;;21.33;100.00
36726;BME280;44936;52.086;5.150;2023-06-26T10:10:42;102300.38;;;21.39;100.00
36726;BME280;44936;52.086;5.150;2023-06-26T10:13:15;102282.75;;;21.29;100.00
36726;BME280;44936;52.086;5.150;2023-06-26T10:15:41;102295.06;;;21.36;100.00
36726;BME280;44936;52.086;5.150;2023-06-26T10:18:09;102267.53;;;21.34;100.00
36726;BME280;44936;52.086;5.150;2023-06-26T10:20:36;102290.75;;;21.30;100.00
36726;BME280;44936;52.086;5.150;2023-06-26T10:23:02;102289.03;;;21.25;100.00
36726;BME280;44936;52.086;5.150;2023-06-26T10:25:31;102296.94;;;21.32;100.00
36726;BME280;44936;52.086;5.150;2023-06-26T10:27:58;102312.88;;;21.35;100.00
36726;BME280;44936;52.086;5.150;2023-06-26T10:30:28;102325.75;;;21.60;100.00
36726;BME280;44936;52.086;5.150;2023-06-26T10:32:55;102306.06;;;21.67;100.00
36726;BME280;44936;52.086;5.150;2023-06-26T10:35:21;102309.47;;;21.73;100.00
36726;BME280;44936;52.086;5.150;2023-06-26T10:37:48;102300.78;;;21.62;100.00
36726;BME280;44936;52.086;5.150;2023-06-26T10:40:21;102312.97;;;21.77;100.00
36726;BME280;44936;52.086;5.150;2023-06-26T10:42:47;102307.59;;;21.78;100.00
36726;BME280;44936;52.086;5.150;2023-06-26T10:45:20;102307.13;;;22.01;100.00
36726;BME280;44936;52.086;5.150;2023-06-26T10:47:47;102311.47;;;22.07;100.00
36726;BME280;44936;52.086;5.150;2023-06-26T10:52:42;102310.63;;;22.03;100.00
36726;BME280;44936;52.086;5.150;2023-06-26T10:55:10;102325.00;;;22.40;100.00
36726;BME280;44936;52.086;5.150;2023-06-26T10:57:36;102291.91;;;22.45;100.00
36726;BME280;44936;52.086;5.150;2023-06-26T11:00:13;102292.34;;;22.64;100.00
36726;BME280;44936;52.086;5.150;2023-06-26T11:02:52;102307.28;;;22.36;100.00
36726;BME280;44936;52.086;5.150;2023-06-26T11:05:29;102285.38;;;22.20;100.00
36726;BME280;44936;52.086;5.150;2023-06-26T11:08:07;102313.34;;;22.42;100.00
36726;BME280;44936;52.086;5.150;2023-06-26T11:13:17;102326.81;;;22.39;100.00
36726;BME280;44936;52.086;5.150;2023-06-26T11:15:44;102296.72;;;22.29;100.00
36726;BME280;44936;52.086;5.150;2023-06-26T11:18:12;102328.38;;;22.48;100.00
36726;BME280;44936;52.086;5.150;2023-06-26T11:20:38;102337.03;;;22.59;100.00
36726;BME280;44936;52.086;5.150;2023-06-26T11:23:08;102348.28;;;22.34;100.00
36726;BME280;44936;52.086;5.150;2023-06-26T11:25:37;102320.63;;;22.37;100.00
36726;BME280;44936;52.086;5.150;2023-06-26T11:28:04;102309.31;;;22.24;100.00
36726;BME280;44936;52.086;5.150;2023-06-26T11:30:30;102349.16;;;22.37;100.00
36726;BME280;44936;52.086;5.150;2023-06-26T11:33:26;102318.75;;;22.41;100.00
36726;BME280;44936;52.086;5.150;2023-06-26T11:35:51;102317.22;;;22.68;100.00
36726;BME280;44936;52.086;5.150;2023-06-26T11:38:16;102339.78;;;22.95;100.00
36726;BME280;44936;52.086;5.150;2023-06-26T11:40:42;102288.41;;;22.79;100.00
36726;BME280;44936;52.086;5.150;2023-06-26T11:43:07;102291.59;;;22.57;100.00
36726;BME280;44936;52.086;5.150;2023-06-26T11:45:33;102292.88;;;22.78;100.00
36726;BME280;44936;52.086;5.150;2023-06-26T11:47:59;102255.88;;;22.60;100.00
36726;BME280;44936;52.086;5.150;2023-06-26T11:50:25;102290.06;;;22.47;100.00
36726;BME280;44936;52.086;5.150;2023-06-26T11:52:57;102290.59;;;22.63;100.00
36726;BME280;44936;52.086;5.150;2023-06-26T11:55:23;102267.41;;;22.64;100.00
36726;BME280;44936;52.086;5.150;2023-06-26T11:57:57;102312.31;;;22.49;100.00
36726;BME280;44936;52.086;5.150;2023-06-26T12:00:23;102328.88;;;22.65;100.00
36726;BME280;44936;52.086;5.150;2023-06-26T12:02:49;102342.06;;;22.73;100.00
36726;BME280;44936;52.086;5.150;2023-06-26T12:05:18;102350.66;;;22.88;100.00
36726;BME280;44936;52.086;5.150;2023-06-26T12:07:46;102339.50;;;22.68;100.00
36726;BME280;44936;52.086;5.150;2023-06-26T12:10:13;102345.47;;;22.79;100.00
36726;BME280;44936;52.086;5.150;2023-06-26T12:12:39;102349.63;;;22.93;100.00
36726;BME280;44936;52.086;5.150;2023-06-26T12:15:07;102325.38;;;22.61;100.00
36726;BME280;44936;52.086;5.150;2023-06-26T12:17:37;102338.38;;;22.77;100.00
36726;BME280;44936;52.086;5.150;2023-06-26T12:20:04;102340.78;;;22.91;100.00
36726;BME280;44936;52.086;5.150;2023-06-26T12:22:34;102328.09;;;22.99;100.00
36726;BME280;44936;52.086;5.150;2023-06-26T12:25:00;102340.00;;;22.85;100.00
36726;BME280;44936;52.086;5.150;2023-06-26T12:27:26;102341.53;;;22.96;100.00
36726;BME280;44936;52.086;5.150;2023-06-26T12:29:53;102344.28;;;22.93;100.00
36726;BME280;44936;52.086;5.150;2023-06-26T12:32:19;102330.38;;;22.77;100.00
36726;BME280;44936;52.086;5.150;2023-06-26T12:34:48;102379.91;;;22.95;100.00
36726;BME280;44936;52.086;5.150;2023-06-26T12:37:15;102374.47;;;22.99;100.00
36726;BME280;44936;52.086;5.150;2023-06-26T12:39:51;102351.44;;;22.92;100.00
36726;BME280;44936;52.086;5.150;2023-06-26T12:42:19;102356.31;;;22.73;100.00
36726;BME280;44936;52.086;5.150;2023-06-26T12:44:45;102338.44;;;22.37;100.00